< < Back
Terminal Aerodrome Forecast


Current Version              Previous Versions:   1  2  3  4  5  6  7  8  9  

Terminal Aerodrome Forecast

910
FTUS42 KFFC 021730
TAFPDK
TAF
KPDK 021730Z 0218/0318 25010KT P6SM VCSH SCT030
      TEMPO 0218/0222 VRB15G25KT 6SM TSRA BKN035CB
     FM030100 24007KT P6SM VCSH BKN050 BKN100
     FM030900 23008KT P6SM BKN015
     FM031400 25011KT P6SM BKN025 BKN250
     FM031600 26012G18KT P6SM SCT050 BKN250=



Latest METAR

155
SAUS70 KWBC 030000 RRK
MTRPDK
METAR KPDK 022353Z 25009KT 7SM CLR 28/20 A2997 RMK AO2 SLP132 T02780200
10311 20244 56005


USA.gov is the U.S. government's official web portal to all federal, state and local government web resources and services.